Time;durP1;ratioP1;P1;durP2;ratioP2;P2;SDS_P1;SDS_P2;PMS_P1;PMS_P2;Temp;Humidity;BMP_temperature;BMP_pressure;BME280_temperature;BME280_humidity;BME280_pressure;Samples;Min_cycle;Max_cycle;Signal;HPM_P1;HPM_P2
2022/08/21 00:00:15;;;;;;;0.40;0.20;;;16.10;99.90;;;;;;5092908;28;20381;-75
2022/08/21 00:02:54;;;;;;;0.40;0.20;;;16.00;99.90;;;;;;5091299;28;20382;-75
2022/08/21 00:05:20;;;;;;;0.40;0.30;;;16.00;99.90;;;;;;5092935;28;20385;-75
2022/08/21 00:07:47;;;;;;;0.40;0.20;;;16.10;99.90;;;;;;5092939;28;20382;-76
2022/08/21 00:10:13;;;;;;;0.40;0.20;;;16.10;99.90;;;;;;5092626;28;20406;-75
2022/08/21 00:12:39;;;;;;;0.40;0.20;;;16.10;99.90;;;;;;5092431;28;20856;-75
2022/08/21 00:15:08;;;;;;;0.40;0.20;;;16.00;99.90;;;;;;5092650;28;20387;-75
2022/08/21 00:17:34;;;;;;;0.40;0.28;;;16.00;99.90;;;;;;5091405;28;20385;-74
2022/08/21 00:19:59;;;;;;;0.40;0.20;;;16.00;99.90;;;;;;5091182;28;20386;-75
2022/08/21 00:22:25;;;;;;;0.40;0.20;;;15.90;99.90;;;;;;5091965;28;20863;-75
2022/08/21 00:24:51;;;;;;;0.40;0.30;;;15.90;99.90;;;;;;5092394;28;20477;-75
2022/08/21 00:27:16;;;;;;;0.40;0.30;;;15.90;99.90;;;;;;5092414;28;20385;-75
2022/08/21 00:29:42;;;;;;;0.40;0.30;;;15.90;99.90;;;;;;5092253;28;20398;-75
2022/08/21 00:32:07;;;;;;;0.40;0.20;;;15.80;99.90;;;;;;5092389;28;20377;-74
2022/08/21 00:34:33;;;;;;;1.30;0.90;;;15.80;99.90;;;;;;5092090;28;20405;-75
2022/08/21 00:36:58;;;;;;;0.40;0.30;;;15.70;99.90;;;;;;5092349;28;20417;-76
2022/08/21 00:39:24;;;;;;;0.40;0.20;;;15.70;99.90;;;;;;5090837;28;20417;-75
2022/08/21 00:41:49;;;;;;;0.40;0.20;;;15.70;99.90;;;;;;5092144;28;20931;-74
2022/08/21 00:44:15;;;;;;;0.40;0.30;;;15.70;99.90;;;;;;5091782;28;20397;-75
2022/08/21 00:46:42;;;;;;;0.40;0.20;;;15.70;99.90;;;;;;5092328;28;20501;-75
2022/08/21 00:49:09;;;;;;;0.40;0.20;;;15.60;99.90;;;;;;5092308;28;20384;-75
2022/08/21 00:51:43;;;;;;;0.70;0.60;;;15.60;99.90;;;;;;5090682;28;20821;-76
2022/08/21 00:54:10;;;;;;;0.40;0.30;;;15.60;99.90;;;;;;5090367;28;20422;-75
2022/08/21 00:56:36;;;;;;;0.40;0.20;;;15.60;99.90;;;;;;5091899;28;20447;-74
2022/08/21 00:59:03;;;;;;;0.40;0.20;;;15.50;99.90;;;;;;5091847;28;20374;-75
2022/08/21 01:01:29;;;;;;;0.40;0.30;;;15.50;99.90;;;;;;5090490;28;20405;-75
2022/08/21 01:03:54;;;;;;;0.40;0.20;;;15.40;99.90;;;;;;5091537;28;20779;-74
2022/08/21 01:06:20;;;;;;;0.40;0.20;;;15.40;99.90;;;;;;5091729;28;20382;-75
2022/08/21 01:08:46;;;;;;;0.40;0.30;;;15.40;99.90;;;;;;5090109;28;20402;-75
2022/08/21 01:11:12;;;;;;;0.40;0.20;;;15.40;99.90;;;;;;5091564;28;20485;-75
2022/08/21 01:13:44;;;;;;;0.40;0.20;;;15.30;99.90;;;;;;5091355;28;20434;-75
2022/08/21 01:16:10;;;;;;;0.40;0.30;;;15.30;99.90;;;;;;5090245;28;20370;-74
2022/08/21 01:18:36;;;;;;;0.40;0.30;;;15.30;99.90;;;;;;5091456;28;20941;-75
2022/08/21 01:21:06;;;;;;;0.40;0.20;;;15.30;99.90;;;;;;5090882;28;20391;-74
2022/08/21 01:23:32;;;;;;;0.40;0.20;;;15.40;99.90;;;;;;5091315;28;20389;-74
2022/08/21 01:25:58;;;;;;;0.40;0.20;;;15.40;99.90;;;;;;5090002;28;20390;-75
2022/08/21 01:28:24;;;;;;;0.40;0.20;;;15.30;99.90;;;;;;5091236;28;20443;-75
2022/08/21 01:30:52;;;;;;;0.40;0.20;;;15.30;99.90;;;;;;5091230;28;20416;-74
2022/08/21 01:33:23;;;;;;;0.40;0.30;;;15.30;99.90;;;;;;5091444;28;20378;-75
2022/08/21 01:35:49;;;;;;;0.40;0.20;;;15.30;99.90;;;;;;5091186;28;20377;-74
2022/08/21 01:38:15;;;;;;;0.40;0.30;;;15.30;99.90;;;;;;5091058;28;20934;-75
2022/08/21 01:40:41;;;;;;;0.40;0.20;;;15.20;99.90;;;;;;5091069;28;20413;-75
2022/08/21 01:43:06;;;;;;;0.40;0.30;;;15.30;99.90;;;;;;5090804;28;20382;-75
2022/08/21 01:45:32;;;;;;;0.40;0.20;;;15.30;99.90;;;;;;5090984;28;20380;-75
2022/08/21 01:47:57;;;;;;;0.40;0.30;;;15.30;99.90;;;;;;5090898;28;20385;-74
2022/08/21 01:50:23;;;;;;;0.40;0.20;;;15.30;99.90;;;;;;5090709;28;20771;-74
2022/08/21 01:52:49;;;;;;;0.40;0.30;;;15.30;99.90;;;;;;5089293;28;20386;-75
2022/08/21 01:55:16;;;;;;;0.40;0.20;;;15.30;99.90;;;;;;5090851;28;20751;-75
2022/08/21 01:57:42;;;;;;;0.40;0.20;;;15.20;99.90;;;;;;5090873;28;20374;-74
2022/08/21 02:00:11;;;;;;;0.40;0.30;;;15.20;99.90;;;;;;5090785;28;20859;-75
2022/08/21 02:02:38;;;;;;;0.40;0.20;;;15.20;99.90;;;;;;5089012;28;20390;-75
2022/08/21 02:05:05;;;;;;;0.60;0.60;;;15.20;99.90;;;;;;5090744;28;20933;-75
2022/08/21 02:07:49;;;;;;;0.40;0.20;;;15.20;99.90;;;;;;5090678;28;20469;-74
2022/08/21 02:10:19;;;;;;;0.60;0.60;;;15.20;99.90;;;;;;5090373;28;20402;-74
2022/08/21 02:12:45;;;;;;;0.40;0.30;;;15.20;99.90;;;;;;5089920;28;20388;-74
2022/08/21 02:15:11;;;;;;;0.40;0.20;;;15.10;99.90;;;;;;5088870;28;20883;-74
2022/08/21 02:17:42;;;;;;;0.40;0.30;;;15.20;99.90;;;;;;5090527;28;20735;-74
2022/08/21 02:20:08;;;;;;;0.40;0.20;;;15.10;99.90;;;;;;5090450;28;20868;-75
2022/08/21 02:22:34;;;;;;;0.40;0.30;;;15.10;99.90;;;;;;5089740;28;20393;-74
2022/08/21 02:24:59;;;;;;;0.40;0.30;;;15.10;99.90;;;;;;5090347;28;20381;-75
2022/08/21 02:27:26;;;;;;;0.40;0.27;;;15.00;99.90;;;;;;5090250;28;20386;-75
2022/08/21 02:29:51;;;;;;;0.40;0.30;;;15.10;99.90;;;;;;5090220;28;20382;-74
2022/08/21 02:32:17;;;;;;;0.40;0.40;;;15.10;99.90;;;;;;5090241;28;20431;-75
2022/08/21 02:34:42;;;;;;;0.40;0.27;;;15.10;99.90;;;;;;5089982;28;20378;-75
2022/08/21 02:37:08;;;;;;;0.40;0.22;;;15.10;99.90;;;;;;5090265;28;20786;-74
2022/08/21 02:39:34;;;;;;;0.40;0.20;;;15.00;99.90;;;;;;5088577;28;20515;-74
2022/08/21 02:41:59;;;;;;;0.40;0.20;;;15.00;99.90;;;;;;5090251;28;20382;-74
2022/08/21 02:44:25;;;;;;;0.40;0.30;;;14.90;99.90;;;;;;5089874;28;20381;-74
2022/08/21 02:46:51;;;;;;;0.40;0.20;;;15.00;99.90;;;;;;5090292;28;20374;-74
2022/08/21 02:49:17;;;;;;;0.40;0.20;;;15.00;99.90;;;;;;5090065;28;20397;-75
2022/08/21 02:51:42;;;;;;;0.40;0.20;;;15.10;99.90;;;;;;5089984;28;20538;-74
2022/08/21 02:54:08;;;;;;;0.40;0.20;;;14.90;99.90;;;;;;5088351;28;20465;-74
2022/08/21 02:56:34;;;;;;;0.40;0.20;;;14.90;99.90;;;;;;5089928;28;20382;-73
2022/08/21 02:58:59;;;;;;;0.40;0.20;;;14.80;99.90;;;;;;5089976;28;20420;-74
2022/08/21 03:01:25;;;;;;;0.40;0.20;;;14.90;99.90;;;;;;5090023;28;20802;-75
2022/08/21 03:03:51;;;;;;;0.40;0.30;;;14.80;99.90;;;;;;5088433;28;20390;-74
2022/08/21 03:06:19;;;;;;;0.40;0.30;;;14.80;99.90;;;;;;5088675;28;20470;-75
2022/08/21 03:08:45;;;;;;;0.40;0.30;;;14.80;99.90;;;;;;5089733;28;20759;-74
2022/08/21 03:11:11;;;;;;;0.40;0.30;;;14.80;99.90;;;;;;5088546;28;20521;-74
2022/08/21 03:13:38;;;;;;;0.40;0.20;;;14.70;99.90;;;;;;5089677;28;20755;-74
2022/08/21 03:16:04;;;;;;;0.40;0.30;;;14.60;99.90;;;;;;5089974;28;20445;-75
2022/08/21 03:18:29;;;;;;;0.40;0.30;;;14.60;99.90;;;;;;5088508;28;21167;-74
2022/08/21 03:20:55;;;;;;;0.40;0.20;;;14.70;99.90;;;;;;5088143;28;20428;-74
2022/08/21 03:23:21;;;;;;;0.40;0.30;;;14.70;99.90;;;;;;5089212;28;20393;-74
2022/08/21 03:25:48;;;;;;;0.40;0.30;;;14.70;99.90;;;;;;5092029;28;20382;-74
2022/08/21 03:28:18;;;;;;;0.40;0.30;;;14.70;99.90;;;;;;5093651;28;20436;-74
2022/08/21 03:30:47;;;;;;;0.40;0.20;;;14.70;99.90;;;;;;5094041;28;20401;-74
2022/08/21 03:33:13;;;;;;;0.40;0.20;;;14.70;99.90;;;;;;5093734;28;20385;-74
2022/08/21 03:35:40;;;;;;;0.40;0.30;;;14.50;99.90;;;;;;5093819;28;20382;-74
2022/08/21 03:38:06;;;;;;;0.40;0.20;;;14.50;99.90;;;;;;5093877;28;20382;-75
2022/08/21 03:40:31;;;;;;;0.40;0.25;;;14.40;99.90;;;;;;5094022;28;20377;-75
2022/08/21 03:42:58;;;;;;;0.40;0.20;;;14.60;99.90;;;;;;5093499;28;20420;-74
2022/08/21 03:45:23;;;;;;;0.40;0.30;;;14.60;99.90;;;;;;5093782;28;20386;-74
2022/08/21 03:48:01;;;;;;;0.40;0.30;;;14.60;99.90;;;;;;5092479;28;20879;-74
2022/08/21 03:50:31;;;;;;;0.40;0.20;;;14.60;99.90;;;;;;5092174;28;20402;-74
2022/08/21 03:52:56;;;;;;;0.40;0.30;;;14.60;99.90;;;;;;5092205;28;20409;-74
2022/08/21 03:55:23;;;;;;;0.40;0.20;;;14.50;99.90;;;;;;5093700;28;20957;-75
2022/08/21 03:57:48;;;;;;;0.40;0.28;;;14.40;99.90;;;;;;5093688;28;20374;-75
2022/08/21 04:00:15;;;;;;;0.40;0.30;;;14.60;99.90;;;;;;5093576;28;20727;-75
2022/08/21 04:02:43;;;;;;;0.40;0.30;;;14.60;99.90;;;;;;5091921;28;20413;-75
2022/08/21 04:05:09;;;;;;;0.40;0.40;;;14.60;99.90;;;;;;5093608;28;20405;-75
2022/08/21 04:07:35;;;;;;;0.40;0.20;;;14.50;99.90;;;;;;5093481;28;21041;-75
2022/08/21 04:10:02;;;;;;;0.40;0.30;;;14.60;99.90;;;;;;5092079;28;21044;-74
2022/08/21 04:12:27;;;;;;;0.40;0.20;;;14.50;99.90;;;;;;5093018;28;20862;-75
2022/08/21 04:14:53;;;;;;;0.40;0.30;;;14.50;99.90;;;;;;5092948;28;20378;-75
2022/08/21 04:17:18;;;;;;;0.40;0.20;;;14.60;99.90;;;;;;5093090;28;20382;-75
2022/08/21 04:19:44;;;;;;;0.40;0.30;;;14.50;99.90;;;;;;5093001;28;20382;-75
2022/08/21 04:22:10;;;;;;;0.40;0.30;;;14.50;99.90;;;;;;5092724;28;20375;-74
2022/08/21 04:24:36;;;;;;;0.40;0.20;;;14.50;99.90;;;;;;5092782;28;20746;-75
2022/08/21 04:27:01;;;;;;;0.40;0.30;;;14.60;99.90;;;;;;5093018;28;20397;-75
2022/08/21 04:29:27;;;;;;;0.40;0.20;;;14.40;99.90;;;;;;5092733;28;20389;-75
2022/08/21 04:31:52;;;;;;;0.40;0.30;;;14.30;99.90;;;;;;5091495;28;20489;-75
2022/08/21 04:34:18;;;;;;;0.40;0.30;;;14.40;99.90;;;;;;5092630;28;20371;-75
2022/08/21 04:36:44;;;;;;;0.40;0.20;;;14.40;99.90;;;;;;5092492;28;20751;-75
2022/08/21 04:39:09;;;;;;;0.40;0.30;;;14.30;99.90;;;;;;5092687;28;20378;-75
2022/08/21 04:41:35;;;;;;;0.40;0.30;;;14.30;99.90;;;;;;5092690;28;20435;-74
2022/08/21 04:44:02;;;;;;;1.00;0.50;;;14.50;99.90;;;;;;5091544;28;20382;-75
2022/08/21 04:46:28;;;;;;;0.40;0.20;;;14.40;99.90;;;;;;5091423;28;20382;-75
2022/08/21 04:48:54;;;;;;;0.40;0.20;;;14.50;99.90;;;;;;5092518;28;20388;-75
2022/08/21 04:51:29;;;;;;;0.40;0.30;;;14.50;99.90;;;;;;5092532;28;20485;-75
2022/08/21 04:54:16;;;;;;;0.60;0.60;;;14.50;99.90;;;;;;5092400;28;20423;-74
2022/08/21 04:56:51;;;;;;;0.40;0.20;;;14.50;99.90;;;;;;5092868;28;20790;-75
2022/08/21 04:59:31;;;;;;;0.63;0.57;;;14.50;99.90;;;;;;5091522;28;20386;-74
2022/08/21 05:01:57;;;;;;;0.40;0.20;;;14.50;99.90;;;;;;5092355;28;20467;-74
2022/08/21 05:04:27;;;;;;;0.40;0.20;;;14.60;99.90;;;;;;5092007;28;20374;-75
2022/08/21 05:06:55;;;;;;;0.40;0.30;;;14.60;99.90;;;;;;5092135;28;20480;-75
2022/08/21 05:09:22;;;;;;;0.40;0.30;;;14.70;99.90;;;;;;5090950;28;20810;-74
2022/08/21 05:11:48;;;;;;;0.40;0.30;;;14.80;99.90;;;;;;5092125;28;20405;-74
2022/08/21 05:14:14;;;;;;;0.40;0.20;;;14.90;99.90;;;;;;5091811;28;20389;-75
2022/08/21 05:16:41;;;;;;;0.40;0.22;;;14.80;99.90;;;;;;5091034;28;20378;-74
2022/08/21 05:19:08;;;;;;;0.60;0.60;;;14.90;99.90;;;;;;5091901;28;20394;-75
2022/08/21 05:21:35;;;;;;;0.40;0.30;;;14.90;99.90;;;;;;5091602;28;20883;-74
2022/08/21 05:24:00;;;;;;;0.40;0.20;;;15.00;99.90;;;;;;5091474;28;20394;-75
2022/08/21 05:26:26;;;;;;;0.40;0.20;;;15.00;99.90;;;;;;5091832;28;20389;-74
2022/08/21 05:28:51;;;;;;;0.40;0.20;;;15.10;99.90;;;;;;5091763;28;20790;-74
2022/08/21 05:31:17;;;;;;;1.20;0.85;;;15.10;99.90;;;;;;5091638;28;20433;-75
2022/08/21 05:33:43;;;;;;;0.40;0.30;;;15.30;99.90;;;;;;5091291;28;20390;-75
2022/08/21 05:36:08;;;;;;;0.60;0.60;;;15.30;99.90;;;;;;5090247;28;20390;-74
2022/08/21 05:38:34;;;;;;;0.40;0.20;;;15.20;99.90;;;;;;5091894;28;20370;-75
2022/08/21 05:41:00;;;;;;;0.40;0.40;;;15.30;99.90;;;;;;5091748;28;20381;-75
2022/08/21 05:43:25;;;;;;;0.40;0.28;;;15.30;99.90;;;;;;5091678;28;20382;-75
2022/08/21 05:45:51;;;;;;;0.40;0.20;;;15.30;99.90;;;;;;5091452;28;20416;-74
2022/08/21 05:48:22;;;;;;;0.40;0.30;;;15.40;99.90;;;;;;5090565;28;20736;-75
2022/08/21 05:50:49;;;;;;;0.40;0.30;;;15.50;99.90;;;;;;5091254;28;20841;-74
2022/08/21 05:53:16;;;;;;;0.40;0.40;;;15.50;99.90;;;;;;5091010;28;20489;-75
2022/08/21 05:55:42;;;;;;;0.40;0.20;;;15.60;99.90;;;;;;5091285;28;20390;-74
2022/08/21 05:58:08;;;;;;;0.40;0.20;;;15.60;99.90;;;;;;5091210;28;20378;-75
2022/08/21 06:00:33;;;;;;;0.40;0.20;;;15.70;99.90;;;;;;5091083;28;21093;-75
2022/08/21 06:02:59;;;;;;;0.40;0.30;;;15.70;99.90;;;;;;5090969;28;20743;-75
2022/08/21 06:05:26;;;;;;;0.40;0.30;;;15.70;99.90;;;;;;5091197;28;20397;-75
2022/08/21 06:07:51;;;;;;;0.40;0.30;;;15.70;99.90;;;;;;5091245;28;20392;-75
2022/08/21 06:10:17;;;;;;;0.40;0.20;;;15.90;99.90;;;;;;5090764;28;20410;-75
2022/08/21 06:12:42;;;;;;;0.40;0.30;;;16.00;99.90;;;;;;5089523;28;20393;-75
2022/08/21 06:15:08;;;;;;;0.40;0.30;;;16.00;99.90;;;;;;5089550;28;20425;-75
2022/08/21 06:17:34;;;;;;;0.40;0.30;;;16.20;99.90;;;;;;5091276;28;20740;-75
2022/08/21 06:20:00;;;;;;;0.40;0.30;;;16.30;99.90;;;;;;5091429;28;20374;-75
2022/08/21 06:22:25;;;;;;;0.40;0.30;;;16.40;99.90;;;;;;5091060;28;20382;-75
2022/08/21 06:24:51;;;;;;;0.40;0.30;;;16.50;99.90;;;;;;5091421;28;20370;-74
2022/08/21 06:27:17;;;;;;;0.40;0.30;;;16.50;99.90;;;;;;5090066;28;20887;-75
2022/08/21 06:29:44;;;;;;;0.40;0.20;;;16.60;99.90;;;;;;5090907;28;20385;-75
2022/08/21 06:32:11;;;;;;;0.40;0.30;;;16.60;99.90;;;;;;5090930;28;20392;-75
2022/08/21 06:34:38;;;;;;;0.40;0.20;;;16.70;99.90;;;;;;5090718;28;20927;-75
2022/08/21 06:37:04;;;;;;;0.40;0.20;;;16.70;99.90;;;;;;5091007;28;20375;-75
2022/08/21 06:39:30;;;;;;;0.40;0.20;;;16.80;99.90;;;;;;5090733;28;20382;-75
2022/08/21 06:41:56;;;;;;;0.40;0.20;;;16.80;99.90;;;;;;5089456;28;20393;-75
2022/08/21 06:44:21;;;;;;;0.50;0.40;;;16.90;99.90;;;;;;5090429;28;20378;-75
2022/08/21 06:46:47;;;;;;;0.40;0.20;;;16.90;99.90;;;;;;5090674;28;20464;-76
2022/08/21 06:49:12;;;;;;;0.40;0.30;;;16.90;99.90;;;;;;5090627;28;20956;-75
2022/08/21 06:51:38;;;;;;;0.40;0.30;;;17.10;99.90;;;;;;5089247;28;20409;-75
2022/08/21 06:54:04;;;;;;;0.40;0.20;;;17.10;99.90;;;;;;5090312;28;20874;-75
2022/08/21 06:56:30;;;;;;;0.40;0.30;;;17.10;99.90;;;;;;5090396;28;20382;-75
2022/08/21 06:58:55;;;;;;;0.40;0.20;;;17.20;99.90;;;;;;5091591;28;20468;-75
2022/08/21 07:01:24;;;;;;;0.40;0.30;;;17.20;99.90;;;;;;5094932;28;20389;-75
2022/08/21 07:03:50;;;;;;;0.40;0.25;;;17.30;99.90;;;;;;5093113;28;20402;-74
2022/08/21 07:06:15;;;;;;;0.40;0.30;;;17.40;99.90;;;;;;5093343;28;20544;-75
2022/08/21 07:08:41;;;;;;;0.40;0.30;;;17.50;99.90;;;;;;5094305;28;20412;-74
2022/08/21 07:11:16;;;;;;;0.40;0.20;;;17.60;99.90;;;;;;5094323;28;20458;-74
2022/08/21 07:13:42;;;;;;;0.40;0.20;;;17.80;99.90;;;;;;5094211;28;20416;-74
2022/08/21 07:16:08;;;;;;;0.40;0.30;;;18.00;99.90;;;;;;5094460;28;20405;-75
2022/08/21 07:18:33;;;;;;;0.40;0.30;;;18.20;99.90;;;;;;5094311;28;20378;-74
2022/08/21 07:21:01;;;;;;;0.60;0.50;;;18.30;99.90;;;;;;5094132;28;20374;-75
2022/08/21 07:23:34;;;;;;;0.40;0.30;;;18.50;99.90;;;;;;5094019;28;20518;-74
2022/08/21 07:26:00;;;;;;;0.40;0.30;;;18.70;99.90;;;;;;5092955;28;20389;-75
2022/08/21 07:28:26;;;;;;;0.40;0.30;;;18.80;99.90;;;;;;5094120;28;20378;-74
2022/08/21 07:30:54;;;;;;;0.40;0.30;;;18.80;99.90;;;;;;5094213;28;20496;-74
2022/08/21 07:33:20;;;;;;;0.40;0.20;;;18.90;99.90;;;;;;5093862;28;20400;-74
2022/08/21 07:35:46;;;;;;;0.40;0.20;;;19.00;99.90;;;;;;5093985;28;20904;-75
2022/08/21 07:38:11;;;;;;;0.40;0.30;;;19.10;99.90;;;;;;5094027;28;20389;-73
2022/08/21 07:40:37;;;;;;;0.40;0.30;;;19.00;99.90;;;;;;5093977;28;20926;-74
2022/08/21 07:43:02;;;;;;;0.40;0.30;;;19.10;99.90;;;;;;5094424;28;20469;-74
2022/08/21 07:45:28;;;;;;;0.50;0.40;;;19.10;99.90;;;;;;5093844;28;20863;-74
2022/08/21 07:47:54;;;;;;;0.40;0.20;;;19.20;99.90;;;;;;5093638;28;20382;-75
2022/08/21 07:50:19;;;;;;;0.90;0.80;;;19.10;99.90;;;;;;5093454;28;20413;-74
2022/08/21 07:52:45;;;;;;;0.40;0.30;;;19.20;99.90;;;;;;5093439;28;20912;-74
2022/08/21 07:55:14;;;;;;;0.40;0.30;;;19.10;99.90;;;;;;5093954;28;20772;-74
2022/08/21 07:57:40;;;;;;;0.40;0.30;;;19.00;99.90;;;;;;5093553;28;20386;-74
2022/08/21 08:00:12;;;;;;;0.70;0.70;;;18.80;99.90;;;;;;5093477;28;20416;-74
2022/08/21 08:02:38;;;;;;;0.40;0.30;;;18.90;99.90;;;;;;5091967;28;20512;-73
2022/08/21 08:05:07;;;;;;;0.40;0.30;;;19.10;99.90;;;;;;5092144;28;20400;-74
2022/08/21 08:07:33;;;;;;;0.40;0.20;;;19.10;99.90;;;;;;5093260;28;20383;-73
2022/08/21 08:09:58;;;;;;;0.40;0.40;;;19.20;99.90;;;;;;5091809;22;20483;-76
2022/08/21 08:12:29;;;;;;;0.40;0.20;;;19.20;99.90;;;;;;5052826;28;20377;-77
2022/08/21 08:14:56;;;;;;;0.40;0.30;;;19.20;99.90;;;;;;5035110;28;20472;-76
2022/08/21 08:17:23;;;;;;;0.40;0.20;;;19.30;99.90;;;;;;5052915;28;20443;-76
2022/08/21 08:19:49;;;;;;;0.40;0.30;;;19.40;99.90;;;;;;5062423;28;20919;-76
2022/08/21 08:22:19;;;;;;;0.40;0.30;;;19.40;99.90;;;;;;5072905;28;20392;-76
2022/08/21 08:24:45;;;;;;;0.40;0.30;;;19.60;99.90;;;;;;5074891;28;20410;-76
2022/08/21 08:27:10;;;;;;;0.40;0.30;;;19.70;99.90;;;;;;5074152;28;20380;-76
2022/08/21 08:29:36;;;;;;;0.70;0.50;;;19.70;99.90;;;;;;5074536;28;20383;-78
2022/08/21 08:32:02;;;;;;;0.40;0.30;;;19.80;99.90;;;;;;5074693;28;20399;-74
2022/08/21 08:34:28;;;;;;;0.40;0.25;;;19.90;99.90;;;;;;5075282;28;20395;-74
2022/08/21 08:36:53;;;;;;;0.40;0.30;;;19.90;99.90;;;;;;5073247;28;20376;-74
2022/08/21 08:39:19;;;;;;;0.40;0.30;;;20.10;99.90;;;;;;5072772;28;20780;-75
2022/08/21 08:41:50;;;;;;;0.40;0.20;;;20.10;99.90;;;;;;5072564;28;20415;-76
2022/08/21 08:44:16;;;;;;;0.40;0.25;;;20.20;99.90;;;;;;5072584;28;20380;-75
2022/08/21 08:46:45;;;;;;;0.40;0.20;;;20.30;99.90;;;;;;5072847;28;20406;-76
2022/08/21 08:49:24;;;;;;;0.40;0.20;;;20.30;99.90;;;;;;5072495;28;20430;-76
2022/08/21 08:51:55;;;;;;;0.40;0.20;;;20.20;99.90;;;;;;5072351;28;20418;-77
2022/08/21 08:54:33;;;;;;;0.40;0.30;;;20.20;99.90;;;;;;5071950;28;20483;-76
2022/08/21 08:57:07;;;;;;;0.40;0.30;;;20.30;99.90;;;;;;5072286;28;20387;-76
2022/08/21 08:59:40;;;;;;;0.40;0.20;;;20.50;99.90;;;;;;5072179;28;20399;-76
2022/08/21 09:02:09;;;;;;;0.40;0.30;;;20.50;99.90;;;;;;5072154;28;20882;-76
2022/08/21 09:04:34;;;;;;;0.70;0.70;;;20.40;99.90;;;;;;5053956;28;20398;-76
2022/08/21 09:07:06;;;;;;;0.40;0.40;;;20.60;99.90;;;;;;5071957;28;20390;-76
2022/08/21 09:09:48;;;;;;;0.40;0.30;;;20.70;99.90;;;;;;5053797;28;20399;-76
2022/08/21 09:12:50;;;;;;;1.30;0.90;;;20.80;99.90;;;;;;5071874;28;20399;-76
2022/08/21 09:15:25;;;;;;;0.40;0.20;;;20.90;99.90;;;;;;5071599;28;20387;-76
2022/08/21 09:18:03;;;;;;;0.40;0.30;;;20.90;99.90;;;;;;5071856;28;20953;-76
2022/08/21 09:20:38;;;;;;;0.40;0.20;;;20.90;99.90;;;;;;5072024;28;20396;-76
2022/08/21 09:23:22;;;;;;;0.40;0.30;;;21.10;99.90;;;;;;5052083;28;20483;-76
2022/08/21 09:26:17;;;;;;;0.40;0.30;;;21.10;99.90;;;;;;5071745;28;20438;-76
2022/08/21 09:28:43;;;;;;;0.40;0.30;;;21.10;99.90;;;;;;5071507;28;20741;-76
2022/08/21 09:31:20;;;;;;;0.40;0.30;;;21.20;99.90;;;;;;5071621;28;20494;-77
2022/08/21 09:33:46;;;;;;;0.40;0.25;;;21.50;99.90;;;;;;5071327;28;20412;-76
2022/08/21 09:36:11;;;;;;;0.40;0.30;;;21.60;99.90;;;;;;5071688;28;20465;-76
2022/08/21 09:38:37;;;;;;;1.20;0.70;;;21.60;99.90;;;;;;5072260;28;20430;-76
2022/08/21 09:41:05;;;;;;;0.40;0.20;;;21.70;99.90;;;;;;5072079;28;20380;-76
2022/08/21 09:43:31;;;;;;;0.50;0.40;;;21.70;99.90;;;;;;5071852;28;20390;-76
2022/08/21 09:46:06;;;;;;;0.40;0.20;;;21.60;99.90;;;;;;5071251;28;20778;-76
2022/08/21 09:48:43;;;;;;;0.40;0.20;;;21.80;99.90;;;;;;5071280;28;20458;-75
2022/08/21 09:51:14;;;;;;;0.40;0.20;;;21.80;99.90;;;;;;5071083;28;20461;-76
2022/08/21 09:53:45;;;;;;;0.40;0.30;;;21.80;99.90;;;;;;5052939;28;20877;-76
2022/08/21 09:59:27;;;;;;;0.40;0.30;;;22.10;99.90;;;;;;5071284;28;20453;-76
2022/08/21 10:01:54;;;;;;;0.40;0.20;;;22.20;99.90;;;;;;5070963;28;20379;-76
2022/08/21 10:04:23;;;;;;;0.60;0.60;;;22.10;99.90;;;;;;5070870;28;20406;-76
2022/08/21 10:06:49;;;;;;;0.40;0.30;;;22.00;99.90;;;;;;5071247;28;20419;-76
2022/08/21 10:09:21;;;;;;;0.40;0.20;;;22.20;99.90;;;;;;5071252;28;20932;-75
2022/08/21 10:12:22;;;;;;;0.40;0.30;;;22.30;99.90;;;;;;5053562;28;20406;-74
2022/08/21 10:15:19;;;;;;;0.40;0.20;;;22.40;99.90;;;;;;5066918;28;20394;-75
2022/08/21 10:18:01;;;;;;;0.40;0.30;;;22.70;99.90;;;;;;5052672;28;20461;-76
2022/08/21 10:20:50;;;;;;;0.40;0.20;;;22.80;99.10;;;;;;5052593;28;20391;-75
2022/08/21 10:23:32;;;;;;;0.40;0.20;;;22.90;98.90;;;;;;5069993;28;20390;-75
2022/08/21 10:26:37;;;;;;;0.40;0.20;;;23.00;98.50;;;;;;5070535;28;20375;-75
2022/08/21 10:29:12;;;;;;;0.40;0.30;;;23.10;98.10;;;;;;5067005;28;20765;-75
2022/08/21 10:32:02;;;;;;;0.40;0.20;;;23.00;96.80;;;;;;5070450;28;20403;-75
2022/08/21 10:34:51;;;;;;;0.40;0.20;;;23.10;95.40;;;;;;5069940;28;20383;-76
2022/08/21 10:37:39;;;;;;;0.90;0.90;;;23.30;95.20;;;;;;5070566;28;20417;-75
2022/08/21 10:40:21;;;;;;;0.40;0.30;;;23.30;94.50;;;;;;5070405;28;20372;-75
2022/08/21 10:43:08;;;;;;;0.40;0.30;;;23.40;94.70;;;;;;5070308;28;20376;-77
2022/08/21 10:46:02;;;;;;;0.40;0.20;;;23.50;92.50;;;;;;5052624;28;20392;-76
2022/08/21 10:48:36;;;;;;;0.40;0.23;;;23.60;93.60;;;;;;5070473;28;20413;-76
2022/08/21 10:51:27;;;;;;;0.45;0.32;;;23.60;93.90;;;;;;5070308;28;20403;-75
2022/08/21 10:54:04;;;;;;;0.40;0.20;;;23.50;98.80;;;;;;5070519;28;20367;-76
2022/08/21 10:56:33;;;;;;;0.40;0.20;;;23.80;94.70;;;;;;5070401;28;20403;-76
2022/08/21 10:59:25;;;;;;;0.40;0.40;;;24.00;93.10;;;;;;5070251;28;20849;-77
2022/08/21 11:01:59;;;;;;;1.50;1.00;;;23.70;94.80;;;;;;5070336;28;20403;-75
2022/08/21 11:04:48;;;;;;;0.40;0.20;;;23.50;95.40;;;;;;5069856;28;20792;-75
2022/08/21 11:07:37;;;;;;;0.40;0.20;;;23.80;94.00;;;;;;5070182;28;20471;-75
2022/08/21 11:10:19;;;;;;;0.40;0.20;;;23.80;93.80;;;;;;5052040;28;20781;-76
2022/08/21 11:13:00;;;;;;;0.40;0.30;;;24.10;93.40;;;;;;5069787;28;20475;-76
2022/08/21 11:15:39;;;;;;;0.40;0.20;;;24.20;91.90;;;;;;5052081;28;20399;-76
2022/08/21 11:18:43;;;;;;;0.40;0.30;;;24.30;91.30;;;;;;5052183;28;20391;-75
2022/08/21 11:21:29;;;;;;;1.48;0.50;;;24.60;91.20;;;;;;5065322;28;20442;-75
2022/08/21 11:24:14;;;;;;;0.40;0.20;;;24.70;91.10;;;;;;5069699;28;20472;-76
2022/08/21 11:26:47;;;;;;;0.40;0.20;;;24.60;89.90;;;;;;5052067;28;20392;-75
2022/08/21 11:29:23;;;;;;;0.40;0.20;;;25.10;90.00;;;;;;5069834;28;20379;-75
2022/08/21 11:32:22;;;;;;;0.40;0.40;;;25.20;87.10;;;;;;5069990;28;20475;-76
2022/08/21 11:34:57;;;;;;;0.40;0.20;;;25.40;85.10;;;;;;5069893;28;20391;-76
2022/08/21 11:37:41;;;;;;;0.40;0.30;;;25.70;84.40;;;;;;5070013;28;20402;-76
2022/08/21 11:40:16;;;;;;;0.40;0.30;;;26.30;83.80;;;;;;5069959;28;20376;-77
2022/08/21 11:42:58;;;;;;;0.40;0.20;;;26.80;80.20;;;;;;5069638;28;20376;-76
2022/08/21 11:45:39;;;;;;;0.40;0.20;;;27.00;75.00;;;;;;5052006;28;20418;-76
2022/08/21 11:48:25;;;;;;;0.40;0.20;;;27.10;75.40;;;;;;5055538;28;20384;-74
2022/08/21 11:50:51;;;;;;;0.40;0.20;;;26.20;78.30;;;;;;5073493;28;20402;-74
2022/08/21 11:53:21;;;;;;;0.40;0.30;;;25.70;81.90;;;;;;5073219;28;20385;-74
2022/08/21 11:56:04;;;;;;;0.40;0.20;;;26.60;78.60;;;;;;5073512;28;20737;-75
2022/08/21 11:58:45;;;;;;;0.40;0.20;;;26.90;77.70;;;;;;5073579;28;20372;-75
2022/08/21 12:01:18;;;;;;;0.80;0.70;;;27.20;73.70;;;;;;5073415;28;20392;-75
2022/08/21 12:03:54;;;;;;;0.40;0.20;;;27.90;73.60;;;;;;5073087;28;20375;-75
2022/08/21 12:06:33;;;;;;;0.50;0.50;;;27.80;67.70;;;;;;5073255;28;20384;-75
2022/08/21 12:09:08;;;;;;;0.70;0.60;;;27.00;70.10;;;;;;5054856;28;20792;-75
2022/08/21 12:11:47;;;;;;;0.40;0.20;;;26.10;73.70;;;;;;5072992;28;20396;-75
2022/08/21 12:14:18;;;;;;;0.40;0.20;;;25.90;76.90;;;;;;5054765;28;20384;-75
2022/08/21 12:16:47;;;;;;;0.40;0.20;;;26.30;74.90;;;;;;5073083;28;20383;-74
2022/08/21 12:19:24;;;;;;;0.60;0.50;;;26.40;74.90;;;;;;5072361;28;20454;-76
2022/08/21 12:22:01;;;;;;;0.40;0.20;;;26.60;77.30;;;;;;5072318;28;20391;-74
2022/08/21 12:24:26;;;;;;;0.40;0.20;;;27.00;75.60;;;;;;5072608;28;20403;-75
2022/08/21 12:26:58;;;;;;;0.40;0.30;;;27.60;75.30;;;;;;5054507;28;20391;-75
2022/08/21 12:29:32;;;;;;;0.40;0.20;;;27.80;70.30;;;;;;5072577;28;20383;-75
2022/08/21 12:32:18;;;;;;;0.50;0.40;;;26.80;71.50;;;;;;5054707;28;20407;-75
2022/08/21 12:35:02;;;;;;;0.40;0.20;;;27.40;71.50;;;;;;5072446;28;20420;-77
2022/08/21 12:37:34;;;;;;;0.40;0.20;;;27.60;71.50;;;;;;5072678;28;20424;-77
2022/08/21 12:40:02;;;;;;;0.40;0.20;;;28.20;68.10;;;;;;5072577;28;20459;-76
2022/08/21 12:42:41;;;;;;;0.40;0.20;;;26.90;66.20;;;;;;5072544;28;20383;-76
2022/08/21 12:45:22;;;;;;;0.40;0.20;;;27.60;68.80;;;;;;5072593;28;20376;-78
2022/08/21 12:47:53;;;;;;;0.40;0.20;;;28.00;69.00;;;;;;5054572;28;20388;-74
2022/08/21 12:50:20;;;;;;;0.40;0.30;;;28.10;66.60;;;;;;5072301;28;21182;-77
2022/08/21 12:53:16;;;;;;;0.40;0.20;;;28.20;64.10;;;;;;5054143;28;20479;-77
2022/08/21 12:55:43;;;;;;;0.40;0.20;;;27.90;63.30;;;;;;5054404;28;20395;-77
2022/08/21 12:58:24;;;;;;;0.40;0.20;;;28.20;64.40;;;;;;5054145;28;20420;-77
2022/08/21 13:01:25;;;;;;;0.40;0.20;;;28.40;63.80;;;;;;5072155;28;20383;-77
2022/08/21 13:03:54;;;;;;;0.40;0.20;;;27.70;65.10;;;;;;5072076;28;20420;-77
2022/08/21 13:06:22;;;;;;;0.40;0.20;;;28.30;65.50;;;;;;5072078;28;20392;-76